createdAt,value
2018-09-28T00:00:01.762Z,96255.34
2018-09-28T00:02:31.114Z,96251.58
2018-09-28T00:05:00.551Z,96251.58
2018-09-28T00:07:29.909Z,96248.63
2018-09-28T00:09:59.321Z,96243.78
2018-09-28T00:12:28.744Z,96244.60
2018-09-28T00:14:58.079Z,96236.42
2018-09-28T00:17:27.481Z,96236.72
2018-09-28T00:19:56.871Z,96237.21
2018-09-28T00:22:26.231Z,96241.80
2018-09-28T00:24:55.732Z,96231.03
2018-09-28T00:27:25.177Z,96231.29
2018-09-28T00:29:54.524Z,96228.22
2018-09-28T00:32:23.933Z,96222.09
2018-09-28T00:34:53.310Z,96220.72
2018-09-28T00:37:22.681Z,96215.09
2018-09-28T00:39:52.013Z,96209.80
2018-09-28T00:42:21.454Z,96207.11
2018-09-28T00:44:50.828Z,96203.64
2018-09-28T00:47:20.159Z,96203.64
2018-09-28T00:49:49.809Z,96202.53
2018-09-28T00:52:19.169Z,96202.03
2018-09-28T00:54:48.633Z,96196.87
2018-09-28T00:57:18.246Z,96196.87
2018-09-28T00:59:47.725Z,96187.19
2018-09-28T01:02:17.262Z,96190.10
2018-09-28T01:04:46.840Z,96183.59
2018-09-28T01:07:16.266Z,96179.40
2018-09-28T01:09:45.837Z,96181.53
2018-09-28T01:12:15.330Z,96171.30
2018-09-28T01:14:44.889Z,96168.31
2018-09-28T01:17:14.451Z,96164.03
2018-09-28T01:19:44.079Z,96170.80
2018-09-28T01:22:13.602Z,96169.75
2018-09-28T01:24:43.228Z,96163.83
2018-09-28T01:27:13.020Z,96167.83
2018-09-28T01:29:42.644Z,96163.56
2018-09-28T01:32:12.287Z,96161.12
2018-09-28T01:34:41.825Z,96153.33
2018-09-28T01:37:11.245Z,96155.98
2018-09-28T01:39:40.605Z,96154.97
2018-09-28T01:42:10.013Z,96153.27
2018-09-28T01:44:39.453Z,96154.35
2018-09-28T01:47:09.007Z,96150.30
2018-09-28T01:49:38.376Z,96150.30
2018-09-28T01:52:07.827Z,96146.01
2018-09-28T01:54:37.238Z,96152.55
2018-09-28T01:57:06.602Z,96142.83
2018-09-28T01:59:35.975Z,96139.63
2018-09-28T02:02:05.442Z,96147.12
2018-09-28T02:04:35.431Z,96140.16
2018-09-28T02:07:04.923Z,96146.05
2018-09-28T02:09:34.530Z,96146.05
2018-09-28T02:12:04.037Z,96135.61
2018-09-28T02:14:33.891Z,96138.55
2018-09-28T02:17:03.450Z,96134.30
2018-09-28T02:19:32.879Z,96131.84
2018-09-28T02:22:02.237Z,96123.56
2018-09-28T02:24:31.633Z,96122.69
2018-09-28T02:27:00.972Z,96123.53
2018-09-28T02:29:30.466Z,96124.32
2018-09-28T02:31:59.820Z,96110.96
2018-09-28T02:34:29.284Z,96113.09
2018-09-28T02:36:58.624Z,96115.28
2018-09-28T02:39:27.966Z,96116.86
2018-09-28T02:41:57.369Z,96115.45
2018-09-28T02:44:26.734Z,96113.30
2018-09-28T02:46:56.082Z,96103.65
2018-09-28T02:49:25.475Z,96109.25
2018-09-28T02:51:54.795Z,96099.10
2018-09-28T02:54:24.507Z,96096.19
2018-09-28T02:56:54.184Z,96096.13
2018-09-28T02:59:23.555Z,96088.90
2018-09-28T03:01:53.245Z,96086.73
2018-09-28T03:04:23.485Z,96090.19
2018-09-28T03:06:53.002Z,96089.63
2018-09-28T03:09:22.407Z,96093.68
2018-09-28T03:11:51.743Z,96093.13
2018-09-28T03:14:21.116Z,96092.28
2018-09-28T03:16:50.523Z,96094.67
2018-09-28T03:19:19.901Z,96088.26
2018-09-28T03:21:49.266Z,96086.92
2018-09-28T03:24:18.695Z,96090.94
2018-09-28T03:26:48.113Z,96085.34
2018-09-28T03:29:17.561Z,96082.95
2018-09-28T03:31:47.184Z,96089.10
2018-09-28T03:34:16.670Z,96094.99
2018-09-28T03:36:46.184Z,96089.83
2018-09-28T03:39:15.909Z,96087.21
2018-09-28T03:41:45.571Z,96086.13
2018-09-28T03:44:15.354Z,96081.55
2018-09-28T03:46:45.021Z,96083.66
2018-09-28T03:49:14.704Z,96075.61
2018-09-28T03:51:44.896Z,96079.87
2018-09-28T03:54:14.744Z,96081.20
2018-09-28T03:56:44.449Z,96083.36
2018-09-28T03:59:14.133Z,96082.52
2018-09-28T04:01:43.733Z,96081.99
2018-09-28T04:04:13.417Z,96071.27
2018-09-28T04:06:44.040Z,96069.70
2018-09-28T04:09:13.708Z,96069.66
2018-09-28T04:11:43.477Z,96070.91
2018-09-28T04:14:13.113Z,96073.89
2018-09-28T04:16:42.887Z,96076.28
2018-09-28T04:19:12.760Z,96072.00
2018-09-28T04:21:46.506Z,96070.92
2018-09-28T04:24:16.294Z,96071.47
2018-09-28T04:26:45.877Z,96065.84
2018-09-28T04:29:15.699Z,96067.19
2018-09-28T04:31:45.413Z,96065.06
2018-09-28T04:34:14.981Z,96072.05
2018-09-28T04:36:44.731Z,96072.81
2018-09-28T04:39:14.543Z,96077.65
2018-09-28T04:41:44.287Z,96077.94
2018-09-28T04:44:14.401Z,96084.64
2018-09-28T04:46:44.141Z,96088.38
2018-09-28T04:49:13.824Z,96095.37
2018-09-28T04:51:43.516Z,96089.45
2018-09-28T04:54:13.231Z,96087.06
2018-09-28T04:56:43.223Z,96083.56
2018-09-28T04:59:13.651Z,96087.59
2018-09-28T05:01:43.402Z,96085.98
2018-09-28T05:04:13.286Z,96088.78
2018-09-28T05:06:42.820Z,96087.16
2018-09-28T05:09:13.869Z,96088.20
2018-09-28T05:11:43.747Z,96089.28
2018-09-28T05:14:13.460Z,96084.70
2018-09-28T05:16:43.376Z,96090.91
2018-09-28T05:19:13.024Z,96087.91
2018-09-28T05:21:42.635Z,96088.17
2018-09-28T05:24:12.227Z,96089.74
2018-09-28T05:26:41.834Z,96089.74
2018-09-28T05:29:11.219Z,96089.52
2018-09-28T05:31:40.748Z,96089.83
2018-09-28T05:34:10.028Z,96089.57
2018-09-28T05:36:39.432Z,96096.25
2018-09-28T05:39:10.608Z,96091.17
2018-09-28T05:41:40.039Z,96088.46
2018-09-28T05:44:09.484Z,96089.57
2018-09-28T05:46:38.846Z,96089.55
2018-09-28T05:49:08.320Z,96083.89
2018-09-28T05:51:37.696Z,96081.79
2018-09-28T05:54:07.086Z,96081.30
2018-09-28T05:56:36.666Z,96082.95
2018-09-28T05:59:11.458Z,96086.48
2018-09-28T06:01:46.224Z,96084.61
2018-09-28T06:04:20.915Z,96088.63
2018-09-28T06:06:50.303Z,96090.82
2018-09-28T06:09:19.643Z,96088.42
2018-09-28T06:11:49.160Z,96085.48
2018-09-28T06:14:18.552Z,96093.31
2018-09-28T06:16:48.003Z,96093.08
2018-09-28T06:19:17.465Z,96094.73
2018-09-28T06:21:47.110Z,96104.44
2018-09-28T06:24:16.697Z,96101.54
2018-09-28T06:26:46.144Z,96095.95
2018-09-28T06:29:15.884Z,96104.27
2018-09-28T06:31:45.443Z,96105.91
2018-09-28T06:34:15.089Z,96106.70
2018-09-28T06:36:44.824Z,96112.08
2018-09-28T06:39:14.478Z,96113.21
2018-09-28T06:41:44.100Z,96116.68
2018-09-28T06:44:13.747Z,96125.31
2018-09-28T06:46:43.911Z,96121.02
2018-09-28T06:49:13.709Z,96119.19
2018-09-28T06:51:43.447Z,96115.99
2018-09-28T06:54:13.028Z,96115.53
2018-09-28T06:56:42.715Z,96125.02
2018-09-28T06:59:12.094Z,96124.25
2018-09-28T07:01:41.595Z,96120.81
2018-09-28T07:04:11.043Z,96122.20
2018-09-28T07:06:40.543Z,96124.67
2018-09-28T07:09:12.406Z,96124.20
2018-09-28T07:11:42.386Z,96126.73
2018-09-28T07:14:12.036Z,96131.43
2018-09-28T07:16:41.945Z,96127.14
2018-09-28T07:19:11.510Z,96129.52
2018-09-28T07:21:40.963Z,96134.30
2018-09-28T07:24:10.360Z,96127.31
2018-09-28T07:26:39.685Z,96128.84
2018-09-28T07:29:09.096Z,96132.43
2018-09-28T07:31:38.470Z,96129.92
2018-09-28T07:34:08.087Z,96135.97
2018-09-28T07:36:37.561Z,96130.44
2018-09-28T07:39:10.656Z,96130.70
2018-09-28T07:41:40.204Z,96133.58
2018-09-28T07:44:09.608Z,96131.29
2018-09-28T07:46:39.024Z,96132.86
2018-09-28T07:49:08.413Z,96130.97
2018-09-28T07:51:37.779Z,96135.80
2018-09-28T07:54:07.313Z,96125.11
2018-09-28T07:56:36.956Z,96130.86
2018-09-28T07:59:06.499Z,96129.48
2018-09-28T08:01:35.857Z,96132.09
2018-09-28T08:04:05.326Z,96131.16
2018-09-28T08:06:34.559Z,96130.66
2018-09-28T08:09:04.479Z,96138.27
2018-09-28T08:11:33.937Z,96131.12
2018-09-28T08:14:03.256Z,96129.39
2018-09-28T08:16:32.605Z,96130.75
2018-09-28T08:19:02.061Z,96126.35
2018-09-28T08:21:31.589Z,96122.91
2018-09-28T08:24:01.044Z,96130.01
2018-09-28T08:26:30.600Z,96130.00
2018-09-28T08:29:00.008Z,96121.41
2018-09-28T08:31:29.396Z,96126.45
2018-09-28T08:33:58.734Z,96128.82
2018-09-28T08:36:28.132Z,96124.38
2018-09-28T08:38:57.430Z,96124.27
2018-09-28T08:41:26.772Z,96123.80
2018-09-28T08:43:56.111Z,96126.74
2018-09-28T08:46:25.487Z,96123.08
2018-09-28T08:48:54.820Z,96124.94
2018-09-28T08:51:24.147Z,96128.20
2018-09-28T08:53:53.767Z,96121.84
2018-09-28T08:56:23.164Z,96119.88
2018-09-28T08:58:52.514Z,96120.45
2018-09-28T09:01:22.513Z,96114.94
2018-09-28T09:03:52.094Z,96118.94
2018-09-28T09:06:21.453Z,96118.66
2018-09-28T09:08:50.847Z,96113.48
2018-09-28T09:11:20.780Z,96107.60
2018-09-28T09:13:50.178Z,96104.89
2018-09-28T09:16:19.573Z,96112.13
2018-09-28T09:18:48.935Z,96107.22
2018-09-28T09:21:18.261Z,96099.00
2018-09-28T09:23:48.196Z,96102.40
2018-09-28T09:26:17.963Z,96106.53
2018-09-28T09:28:47.822Z,96107.80
2018-09-28T09:31:17.497Z,96115.34
2018-09-28T09:33:47.123Z,96112.51
2018-09-28T09:36:16.803Z,96112.25
2018-09-28T09:38:46.845Z,96111.83
2018-09-28T09:41:16.521Z,96105.14
2018-09-28T09:43:46.344Z,96098.86
2018-09-28T09:46:16.046Z,96097.22
2018-09-28T09:48:45.715Z,96100.41
2018-09-28T09:51:15.814Z,96097.22
2018-09-28T09:53:45.529Z,96099.45
2018-09-28T09:56:15.283Z,96095.23
2018-09-28T09:58:45.022Z,96090.25
2018-09-28T10:01:20.034Z,96085.44
2018-09-28T10:03:50.789Z,96078.41
2018-09-28T10:06:20.413Z,96079.28
2018-09-28T10:08:49.789Z,96071.20
2018-09-28T10:11:19.208Z,96075.77
2018-09-28T10:13:48.801Z,96075.23
2018-09-28T10:16:18.397Z,96073.88
2018-09-28T10:18:48.088Z,96077.66
2018-09-28T10:21:17.494Z,96078.78
2018-09-28T10:23:46.877Z,96078.69
2018-09-28T10:26:16.244Z,96084.48
2018-09-28T10:28:45.790Z,96082.07
2018-09-28T10:31:15.150Z,96071.27
2018-09-28T10:33:44.558Z,96078.44
2018-09-28T10:36:15.044Z,96077.48
2018-09-28T10:38:44.454Z,96073.09
2018-09-28T10:41:14.221Z,96074.68
2018-09-28T10:43:43.538Z,96067.50
2018-09-28T10:46:13.079Z,96067.34
2018-09-28T10:48:42.696Z,96064.61
2018-09-28T10:51:12.300Z,96055.72
2018-09-28T10:53:41.866Z,96055.66
2018-09-28T10:56:11.437Z,96059.73
2018-09-28T10:58:41.233Z,96057.90
2018-09-28T11:01:10.961Z,96052.27
2018-09-28T11:03:40.389Z,96045.53
2018-09-28T11:06:09.914Z,96044.53
2018-09-28T11:08:39.333Z,96042.28
2018-09-28T11:11:08.730Z,96042.11
2018-09-28T11:13:38.061Z,96040.53
2018-09-28T11:16:07.594Z,96035.23
2018-09-28T11:18:36.872Z,96027.42
2018-09-28T11:21:06.447Z,96029.52
2018-09-28T11:23:35.824Z,96025.84
2018-09-28T11:26:05.193Z,96025.42
2018-09-28T11:28:34.646Z,96026.52
2018-09-28T11:31:04.102Z,96028.45
2018-09-28T11:33:33.498Z,96020.16
2018-09-28T11:36:02.850Z,96013.89
2018-09-28T11:38:32.308Z,96014.58
2018-09-28T11:41:01.669Z,96009.80
2018-09-28T11:43:31.017Z,96003.31
2018-09-28T11:46:00.589Z,96001.99
2018-09-28T11:48:30.479Z,96009.02
2018-09-28T11:51:01.058Z,96001.89
2018-09-28T11:53:31.258Z,96004.15
2018-09-28T11:56:01.289Z,96007.80
2018-09-28T11:58:32.494Z,96004.34
2018-09-28T12:01:02.672Z,95994.70
2018-09-28T12:03:32.733Z,95999.22
2018-09-28T12:06:03.214Z,95990.48
2018-09-28T12:08:33.277Z,95990.97
2018-09-28T12:11:03.475Z,95985.89
2018-09-28T12:13:33.491Z,95983.38
2018-09-28T12:16:03.072Z,95982.56
2018-09-28T12:18:33.050Z,95977.11
2018-09-28T12:21:03.717Z,95973.78
2018-09-28T12:23:33.715Z,95965.78
2018-09-28T12:26:03.672Z,95966.77
2018-09-28T12:28:33.978Z,95957.30
2018-09-28T12:31:06.119Z,95955.02
2018-09-28T12:33:36.829Z,95944.04
2018-09-28T12:36:07.261Z,95944.80
2018-09-28T12:38:37.046Z,95944.66
2018-09-28T12:41:06.845Z,95935.28
2018-09-28T12:43:36.589Z,95937.13
2018-09-28T12:46:06.382Z,95937.68
2018-09-28T12:48:36.151Z,95934.41
2018-09-28T12:51:05.953Z,95941.08
2018-09-28T12:53:35.600Z,95939.75
2018-09-28T12:56:05.301Z,95936.70
2018-09-28T12:58:35.313Z,95933.47
2018-09-28T13:01:04.937Z,95931.91
2018-09-28T13:03:34.632Z,95920.31
2018-09-28T13:06:04.262Z,95919.08
2018-09-28T13:08:33.791Z,95913.83
2018-09-28T13:11:03.955Z,95913.46
2018-09-28T13:13:33.848Z,95910.05
2018-09-28T13:16:03.860Z,95908.31
2018-09-28T13:18:33.775Z,95904.14
2018-09-28T13:21:03.936Z,95902.22
2018-09-28T13:23:33.865Z,95896.42
2018-09-28T13:26:04.010Z,95892.58
2018-09-28T13:28:34.356Z,95891.30
2018-09-28T13:31:04.423Z,95888.48
2018-09-28T13:33:34.368Z,95891.05
2018-09-28T13:36:04.291Z,95889.02
2018-09-28T13:38:34.401Z,95889.18
2018-09-28T13:41:04.198Z,95882.28
2018-09-28T13:43:34.084Z,95887.23
2018-09-28T13:46:03.884Z,95886.31
2018-09-28T13:48:33.674Z,95886.91
2018-09-28T13:51:03.522Z,95885.70
2018-09-28T13:53:33.460Z,95880.73
2018-09-28T13:56:03.331Z,95881.56
2018-09-28T13:58:33.501Z,95875.69
2018-09-28T14:01:03.956Z,95880.00
2018-09-28T14:03:33.968Z,95873.36
2018-09-28T14:06:04.130Z,95871.09
2018-09-28T14:08:34.647Z,95871.59
2018-09-28T14:11:04.529Z,95873.14
2018-09-28T14:13:34.297Z,95864.81
2018-09-28T14:16:04.537Z,95869.80
2018-09-28T14:18:34.723Z,95873.05
2018-09-28T14:21:04.605Z,95874.98
2018-09-28T14:23:34.626Z,95870.27
2018-09-28T14:26:04.620Z,95867.12
2018-09-28T14:28:34.907Z,95866.66
2018-09-28T14:31:04.617Z,95874.09
2018-09-28T14:33:34.288Z,95863.95
2018-09-28T14:36:04.582Z,95866.33
2018-09-28T14:38:34.513Z,95866.38
2018-09-28T14:41:04.518Z,95869.37
2018-09-28T14:43:34.637Z,95865.96
2018-09-28T14:46:04.593Z,95864.77
2018-09-28T14:48:34.343Z,95861.39
2018-09-28T14:51:04.097Z,95864.03
2018-09-28T14:53:33.932Z,95859.94
2018-09-28T14:56:03.870Z,95863.39
2018-09-28T14:58:33.591Z,95864.45
2018-09-28T15:01:04.049Z,95864.22
2018-09-28T15:03:34.176Z,95868.23
2018-09-28T15:06:04.308Z,95870.23
2018-09-28T15:08:34.425Z,95870.81
2018-09-28T15:11:04.772Z,95867.52
2018-09-28T15:13:35.096Z,95874.67
2018-09-28T15:16:05.076Z,95866.95
2018-09-28T15:18:34.652Z,95873.48
2018-09-28T15:21:04.401Z,95867.17
2018-09-28T15:23:34.323Z,95863.61
2018-09-28T15:26:04.021Z,95863.48
2018-09-28T15:28:33.842Z,95866.94
2018-09-28T15:31:03.690Z,95867.59
2018-09-28T15:33:33.699Z,95872.72
2018-09-28T15:36:03.682Z,95871.91
2018-09-28T15:38:33.575Z,95869.34
2018-09-28T15:41:03.266Z,95880.09
2018-09-28T15:43:33.472Z,95877.69
2018-09-28T15:46:03.495Z,95880.20
2018-09-28T15:48:33.563Z,95881.28
2018-09-28T15:51:03.762Z,95881.83
2018-09-28T15:53:33.873Z,95883.66
2018-09-28T15:56:03.765Z,95890.38
2018-09-28T15:58:33.630Z,95890.77
2018-09-28T16:01:03.734Z,95891.89
2018-09-28T16:03:33.408Z,95889.77
2018-09-28T16:06:03.651Z,95895.48
2018-09-28T16:08:33.533Z,95904.95
2018-09-28T16:11:03.592Z,95896.13
2018-09-28T16:13:33.623Z,95901.06
2018-09-28T16:16:03.652Z,95902.97
2018-09-28T16:18:33.781Z,95904.54
2018-09-28T16:21:03.858Z,95905.35
2018-09-28T16:23:33.722Z,95906.17
2018-09-28T16:26:03.620Z,95906.81
2018-09-28T16:28:33.794Z,95909.33
2018-09-28T16:31:04.319Z,95915.11
2018-09-28T16:33:34.263Z,95919.11
2018-09-28T16:36:04.508Z,95919.05
2018-09-28T16:38:34.434Z,95923.62
2018-09-28T16:41:04.389Z,95921.07
2018-09-28T16:43:39.783Z,95928.45
2018-09-28T16:46:09.745Z,95925.32
2018-09-28T16:48:39.238Z,95924.11
2018-09-28T16:51:09.402Z,95926.67
2018-09-28T16:53:38.889Z,95928.25
2018-09-28T16:56:08.410Z,95928.63
2018-09-28T16:58:37.979Z,95936.01
2018-09-28T17:01:07.691Z,95943.16
2018-09-28T17:03:37.367Z,95942.38
2018-09-28T17:06:07.007Z,95951.38
2018-09-28T17:08:36.754Z,95944.70
2018-09-28T17:11:06.503Z,95952.41
2018-09-28T17:13:36.851Z,95959.81
2018-09-28T17:16:06.533Z,95962.79
2018-09-28T17:18:36.314Z,95966.58
2018-09-28T17:21:06.221Z,95969.44
2018-09-28T17:23:36.556Z,95977.34
2018-09-28T17:26:06.310Z,95976.56
2018-09-28T17:28:36.203Z,95973.58
2018-09-28T17:31:06.053Z,95980.62
2018-09-28T17:33:36.047Z,95986.27
2018-09-28T17:36:05.803Z,95980.89
2018-09-28T17:38:36.113Z,95988.73
2018-09-28T17:41:05.869Z,95990.68
2018-09-28T17:43:35.550Z,95998.58
2018-09-28T17:46:05.983Z,96001.88
2018-09-28T17:48:35.609Z,96005.05
2018-09-28T17:51:05.821Z,96006.83
2018-09-28T17:53:35.737Z,95999.05
2018-09-28T17:56:05.444Z,96001.20
2018-09-28T17:58:35.194Z,96005.38
2018-09-28T18:01:05.313Z,96012.08
2018-09-28T18:03:36.900Z,96015.81
2018-09-28T18:06:06.783Z,96015.16
2018-09-28T18:08:37.748Z,96017.66
2018-09-28T18:11:07.897Z,96023.92
2018-09-28T18:13:37.577Z,96023.81
2018-09-28T18:16:07.207Z,96038.30
2018-09-28T18:18:36.826Z,96036.76
2018-09-28T18:21:06.406Z,96042.45
2018-09-28T18:23:36.049Z,96043.63
2018-09-28T18:26:06.058Z,96051.76
2018-09-28T18:28:36.084Z,96048.53
2018-09-28T18:31:06.560Z,96044.98
2018-09-28T18:33:36.302Z,96052.84
2018-09-28T18:36:06.342Z,96058.13
2018-09-28T18:38:35.973Z,96063.02
2018-09-28T18:41:06.174Z,96063.11
2018-09-28T18:43:35.810Z,96073.13
2018-09-28T18:46:05.460Z,96080.73
2018-09-28T18:48:34.931Z,96078.84
2018-09-28T18:51:04.645Z,96068.91
2018-09-28T18:53:34.843Z,96074.63
2018-09-28T18:56:04.715Z,96084.63
2018-09-28T18:58:34.354Z,96079.00
2018-09-28T19:01:04.337Z,96086.83
2018-09-28T19:03:33.906Z,96083.60
2018-09-28T19:06:03.535Z,96084.20
2018-09-28T19:08:33.120Z,96082.34
2018-09-28T19:11:02.832Z,96091.79
2018-09-28T19:13:33.033Z,96080.45
2018-09-28T19:16:03.561Z,96086.47
2018-09-28T19:18:33.753Z,96093.52
2018-09-28T19:21:03.922Z,96097.26
2018-09-28T19:23:33.810Z,96110.77
2018-09-28T19:26:03.684Z,96112.64
2018-09-28T19:28:33.648Z,96104.31
2018-09-28T19:31:03.586Z,96109.48
2018-09-28T19:33:34.297Z,96114.64
2018-09-28T19:36:03.725Z,96113.30
2018-09-28T19:38:33.325Z,96118.98
2018-09-28T19:41:02.770Z,96117.66
2018-09-28T19:43:32.342Z,96128.99
2018-09-28T19:46:02.035Z,96133.90
2018-09-28T19:48:31.658Z,96134.42
2018-09-28T19:51:01.019Z,96146.05
2018-09-28T19:53:30.384Z,96152.78
2018-09-28T19:55:59.976Z,96154.37
2018-09-28T19:58:29.416Z,96152.20
2018-09-28T20:00:58.840Z,96153.56
2018-09-28T20:03:28.191Z,96155.96
2018-09-28T20:05:57.526Z,96154.02
2018-09-28T20:08:26.834Z,96167.52
2018-09-28T20:10:56.190Z,96171.86
2018-09-28T20:13:25.542Z,96178.08
2018-09-28T20:15:54.980Z,96177.03
2018-09-28T20:18:24.353Z,96184.93
2018-09-28T20:20:53.649Z,96192.44
2018-09-28T20:23:23.671Z,96193.79
2018-09-28T20:25:53.112Z,96188.73
2018-09-28T20:28:22.410Z,96190.37
2018-09-28T20:30:52.096Z,96193.02
2018-09-28T20:33:21.514Z,96199.28
2018-09-28T20:35:51.641Z,96209.56
2018-09-28T20:38:21.552Z,96211.19
2018-09-28T20:40:51.234Z,96219.27
2018-09-28T20:43:21.281Z,96219.28
2018-09-28T20:45:51.321Z,96219.83
2018-09-28T20:48:21.235Z,96226.81
2018-09-28T20:50:51.136Z,96231.11
2018-09-28T20:53:20.950Z,96240.02
2018-09-28T20:55:50.753Z,96238.95
2018-09-28T20:58:20.813Z,96184.23
2018-09-28T21:00:51.524Z,96233.81
2018-09-28T21:03:21.348Z,96239.98
2018-09-28T21:05:51.289Z,96249.41
2018-09-28T21:08:21.100Z,96252.92
2018-09-28T21:10:50.827Z,96250.22
2018-09-28T21:13:20.765Z,96255.06
2018-09-28T21:15:50.766Z,96261.53
2018-09-28T21:18:20.642Z,96267.42
2018-09-28T21:20:52.610Z,96270.67
2018-09-28T21:23:22.523Z,96275.50
2018-09-28T21:25:52.499Z,96276.01
2018-09-28T21:28:22.115Z,96275.73
2018-09-28T21:30:52.082Z,96281.13
2018-09-28T21:33:21.863Z,96275.20
2018-09-28T21:35:51.168Z,96277.86
2018-09-28T21:38:20.594Z,96285.91
2018-09-28T21:40:49.963Z,96289.66
2018-09-28T21:43:19.476Z,96294.84
2018-09-28T21:45:48.923Z,96301.77
2018-09-28T21:48:18.440Z,96301.23
2018-09-28T21:50:47.983Z,96299.31
2018-09-28T21:53:17.675Z,96303.02
2018-09-28T21:55:47.220Z,96305.66
2018-09-28T21:58:16.807Z,96304.02
2018-09-28T22:00:50.516Z,96304.07
2018-09-28T22:03:19.867Z,96305.95
2018-09-28T22:05:49.237Z,96306.78
2018-09-28T22:08:18.627Z,96304.66
2018-09-28T22:10:48.277Z,96306.20
2018-09-28T22:13:17.802Z,96307.74
2018-09-28T22:15:47.487Z,96322.13
2018-09-28T22:18:17.154Z,96325.19
2018-09-28T22:20:47.273Z,96326.16
2018-09-28T22:23:17.040Z,96324.58
2018-09-28T22:25:46.590Z,96332.09
2018-09-28T22:28:16.183Z,96324.81
2018-09-28T22:30:45.992Z,96334.69
2018-09-28T22:33:15.536Z,96326.03
2018-09-28T22:35:44.961Z,96328.20
2018-09-28T22:38:14.387Z,96319.06
2018-09-28T22:40:43.977Z,96328.45
2018-09-28T22:43:13.292Z,96326.24
2018-09-28T22:45:42.741Z,96329.53
2018-09-28T22:48:12.143Z,96327.41
2018-09-28T22:50:41.560Z,96323.11
2018-09-28T22:53:10.859Z,96324.22
2018-09-28T22:55:40.212Z,96326.62
2018-09-28T22:58:09.612Z,96325.25
2018-09-28T23:00:38.927Z,96332.08
2018-09-28T23:03:08.241Z,96335.38
2018-09-28T23:05:37.599Z,96329.69
2018-09-28T23:08:06.908Z,96336.95
2018-09-28T23:10:36.244Z,96342.30
2018-09-28T23:13:05.575Z,96353.45
2018-09-28T23:15:34.912Z,96347.21
2018-09-28T23:18:04.210Z,96350.95
2018-09-28T23:20:33.530Z,96347.41
2018-09-28T23:23:02.883Z,96351.15
2018-09-28T23:25:32.252Z,96347.50
2018-09-28T23:28:01.555Z,96353.92
2018-09-28T23:30:30.922Z,96351.70
2018-09-28T23:33:00.354Z,96356.05
2018-09-28T23:35:29.655Z,96361.45
2018-09-28T23:37:58.968Z,96345.45
2018-09-28T23:40:28.314Z,96354.22
2018-09-28T23:42:57.705Z,96348.26
2018-09-28T23:45:26.993Z,96350.69
2018-09-28T23:47:56.363Z,96350.83
2018-09-28T23:50:25.765Z,96357.83
2018-09-28T23:52:55.059Z,96369.56
2018-09-28T23:55:24.398Z,96372.96
2018-09-28T23:57:53.784Z,96379.22
